sensor_id;sensor_type;location;lat;lon;timestamp;P1;durP1;ratioP1;P2;durP2;ratioP2
66183;SDS011;52989;48.796;9.806;2022-08-03T00:01:37;7.85;;;5.07;;
66183;SDS011;52989;48.796;9.806;2022-08-03T00:04:04;5.57;;;4.38;;
66183;SDS011;52989;48.796;9.806;2022-08-03T00:06:30;5.68;;;4.18;;
66183;SDS011;52989;48.796;9.806;2022-08-03T00:08:56;4.93;;;3.95;;
66183;SDS011;52989;48.796;9.806;2022-08-03T00:11:22;6.45;;;4.57;;
66183;SDS011;52989;48.796;9.806;2022-08-03T00:13:47;9.07;;;4.50;;
66183;SDS011;52989;48.796;9.806;2022-08-03T00:16:13;6.72;;;4.50;;
66183;SDS011;52989;48.796;9.806;2022-08-03T00:18:39;6.28;;;4.43;;
66183;SDS011;52989;48.796;9.806;2022-08-03T00:21:05;5.15;;;4.32;;
66183;SDS011;52989;48.796;9.806;2022-08-03T00:23:31;7.78;;;4.90;;
66183;SDS011;52989;48.796;9.806;2022-08-03T00:25:57;6.10;;;4.63;;
66183;SDS011;52989;48.796;9.806;2022-08-03T00:28:23;6.65;;;4.50;;
66183;SDS011;52989;48.796;9.806;2022-08-03T00:30:48;5.75;;;4.43;;
66183;SDS011;52989;48.796;9.806;2022-08-03T00:33:14;5.20;;;4.32;;
66183;SDS011;52989;48.796;9.806;2022-08-03T00:35:40;4.78;;;4.15;;
66183;SDS011;52989;48.796;9.806;2022-08-03T00:38:06;6.13;;;4.90;;
66183;SDS011;52989;48.796;9.806;2022-08-03T00:40:32;5.28;;;4.40;;
66183;SDS011;52989;48.796;9.806;2022-08-03T00:43:01;7.32;;;4.55;;
66183;SDS011;52989;48.796;9.806;2022-08-03T00:45:29;4.97;;;4.30;;
66183;SDS011;52989;48.796;9.806;2022-08-03T00:47:59;5.10;;;4.20;;
66183;SDS011;52989;48.796;9.806;2022-08-03T00:50:26;4.75;;;4.20;;
66183;SDS011;52989;48.796;9.806;2022-08-03T00:52:54;7.03;;;4.35;;
66183;SDS011;52989;48.796;9.806;2022-08-03T00:55:21;6.70;;;4.53;;
66183;SDS011;52989;48.796;9.806;2022-08-03T00:57:48;6.93;;;4.97;;
66183;SDS011;52989;48.796;9.806;2022-08-03T01:00:15;5.93;;;4.78;;
66183;SDS011;52989;48.796;9.806;2022-08-03T01:02:42;9.05;;;5.15;;
66183;SDS011;52989;48.796;9.806;2022-08-03T01:05:08;6.72;;;4.57;;
66183;SDS011;52989;48.796;9.806;2022-08-03T01:10:33;6.68;;;4.20;;
66183;SDS011;52989;48.796;9.806;2022-08-03T01:24:42;4.85;;;3.85;;
66183;SDS011;52989;48.796;9.806;2022-08-03T01:27:13;5.32;;;4.20;;
66183;SDS011;52989;48.796;9.806;2022-08-03T01:32:17;7.68;;;4.20;;
66183;SDS011;52989;48.796;9.806;2022-08-03T01:34:47;5.00;;;4.43;;
66183;SDS011;52989;48.796;9.806;2022-08-03T01:37:21;5.57;;;4.85;;
66183;SDS011;52989;48.796;9.806;2022-08-03T01:39:52;5.50;;;4.22;;
66183;SDS011;52989;48.796;9.806;2022-08-03T01:42:21;6.57;;;4.20;;
66183;SDS011;52989;48.796;9.806;2022-08-03T01:44:47;6.03;;;4.47;;
66183;SDS011;52989;48.796;9.806;2022-08-03T01:47:17;6.25;;;4.70;;
66183;SDS011;52989;48.796;9.806;2022-08-03T01:49:44;7.13;;;4.50;;
66183;SDS011;52989;48.796;9.806;2022-08-03T01:52:12;6.15;;;4.30;;
66183;SDS011;52989;48.796;9.806;2022-08-03T01:54:43;5.00;;;4.47;;
66183;SDS011;52989;48.796;9.806;2022-08-03T01:57:10;9.10;;;3.97;;
66183;SDS011;52989;48.796;9.806;2022-08-03T01:59:37;5.32;;;4.20;;
66183;SDS011;52989;48.796;9.806;2022-08-03T02:02:04;6.25;;;4.38;;
66183;SDS011;52989;48.796;9.806;2022-08-03T02:04:30;6.53;;;4.57;;
66183;SDS011;52989;48.796;9.806;2022-08-03T02:06:57;12.02;;;6.72;;
66183;SDS011;52989;48.796;9.806;2022-08-03T02:09:25;9.90;;;6.63;;
66183;SDS011;52989;48.796;9.806;2022-08-03T02:11:53;6.60;;;5.60;;
66183;SDS011;52989;48.796;9.806;2022-08-03T02:14:19;8.23;;;5.60;;
66183;SDS011;52989;48.796;9.806;2022-08-03T02:16:47;7.88;;;5.70;;
66183;SDS011;52989;48.796;9.806;2022-08-03T02:19:14;7.57;;;5.10;;
66183;SDS011;52989;48.796;9.806;2022-08-03T02:21:42;8.02;;;5.03;;
66183;SDS011;52989;48.796;9.806;2022-08-03T02:24:10;6.63;;;4.95;;
66183;SDS011;52989;48.796;9.806;2022-08-03T02:26:36;7.43;;;5.30;;
66183;SDS011;52989;48.796;9.806;2022-08-03T02:29:10;5.57;;;4.63;;
66183;SDS011;52989;48.796;9.806;2022-08-03T02:31:40;7.80;;;5.13;;
66183;SDS011;52989;48.796;9.806;2022-08-03T02:34:11;6.53;;;5.13;;
66183;SDS011;52989;48.796;9.806;2022-08-03T02:36:39;6.05;;;5.22;;
66183;SDS011;52989;48.796;9.806;2022-08-03T02:39:09;12.43;;;6.40;;
66183;SDS011;52989;48.796;9.806;2022-08-03T02:41:36;9.02;;;6.28;;
66183;SDS011;52989;48.796;9.806;2022-08-03T02:44:07;8.02;;;5.88;;
66183;SDS011;52989;48.796;9.806;2022-08-03T02:46:36;6.80;;;5.00;;
66183;SDS011;52989;48.796;9.806;2022-08-03T02:49:04;6.72;;;5.30;;
66183;SDS011;52989;48.796;9.806;2022-08-03T02:51:31;7.47;;;5.40;;
66183;SDS011;52989;48.796;9.806;2022-08-03T02:53:59;6.13;;;4.78;;
66183;SDS011;52989;48.796;9.806;2022-08-03T02:56:27;8.15;;;4.60;;
66183;SDS011;52989;48.796;9.806;2022-08-03T02:58:54;5.35;;;4.45;;
66183;SDS011;52989;48.796;9.806;2022-08-03T03:01:22;5.38;;;4.30;;
66183;SDS011;52989;48.796;9.806;2022-08-03T03:03:50;5.38;;;4.45;;
66183;SDS011;52989;48.796;9.806;2022-08-03T03:06:17;8.07;;;4.32;;
66183;SDS011;52989;48.796;9.806;2022-08-03T03:08:44;6.15;;;4.63;;
66183;SDS011;52989;48.796;9.806;2022-08-03T03:11:12;6.15;;;4.47;;
66183;SDS011;52989;48.796;9.806;2022-08-03T03:13:40;5.38;;;4.50;;
66183;SDS011;52989;48.796;9.806;2022-08-03T03:16:08;6.70;;;4.95;;
66183;SDS011;52989;48.796;9.806;2022-08-03T03:18:36;6.93;;;4.45;;
66183;SDS011;52989;48.796;9.806;2022-08-03T03:21:03;5.50;;;4.40;;
66183;SDS011;52989;48.796;9.806;2022-08-03T03:23:31;7.22;;;5.30;;
66183;SDS011;52989;48.796;9.806;2022-08-03T03:26:01;5.57;;;4.22;;
66183;SDS011;52989;48.796;9.806;2022-08-03T03:28:27;7.03;;;4.90;;
66183;SDS011;52989;48.796;9.806;2022-08-03T03:30:54;7.28;;;5.47;;
66183;SDS011;52989;48.796;9.806;2022-08-03T03:33:20;8.25;;;5.32;;
66183;SDS011;52989;48.796;9.806;2022-08-03T03:35:47;7.18;;;5.90;;
66183;SDS011;52989;48.796;9.806;2022-08-03T03:38:13;10.68;;;6.80;;
66183;SDS011;52989;48.796;9.806;2022-08-03T03:40:38;11.30;;;7.05;;
66183;SDS011;52989;48.796;9.806;2022-08-03T03:43:08;13.07;;;6.63;;
66183;SDS011;52989;48.796;9.806;2022-08-03T03:45:35;10.95;;;7.20;;
66183;SDS011;52989;48.796;9.806;2022-08-03T03:48:02;12.88;;;7.50;;
66183;SDS011;52989;48.796;9.806;2022-08-03T03:50:29;9.68;;;6.35;;
66183;SDS011;52989;48.796;9.806;2022-08-03T03:52:56;9.65;;;7.07;;
66183;SDS011;52989;48.796;9.806;2022-08-03T03:55:23;9.15;;;6.43;;
66183;SDS011;52989;48.796;9.806;2022-08-03T03:57:49;9.25;;;6.07;;
66183;SDS011;52989;48.796;9.806;2022-08-03T04:00:15;6.75;;;5.88;;
66183;SDS011;52989;48.796;9.806;2022-08-03T04:02:42;7.05;;;5.70;;
66183;SDS011;52989;48.796;9.806;2022-08-03T04:05:08;8.85;;;6.20;;
66183;SDS011;52989;48.796;9.806;2022-08-03T04:08:02;8.07;;;6.78;;
66183;SDS011;52989;48.796;9.806;2022-08-03T04:11:37;10.48;;;5.68;;
66183;SDS011;52989;48.796;9.806;2022-08-03T04:16:25;6.55;;;5.15;;
66183;SDS011;52989;48.796;9.806;2022-08-03T04:18:56;8.57;;;5.60;;
66183;SDS011;52989;48.796;9.806;2022-08-03T04:21:29;7.88;;;5.60;;
66183;SDS011;52989;48.796;9.806;2022-08-03T04:23:57;7.40;;;5.95;;
66183;SDS011;52989;48.796;9.806;2022-08-03T04:26:26;10.70;;;6.28;;
66183;SDS011;52989;48.796;9.806;2022-08-03T04:28:55;8.30;;;6.18;;
66183;SDS011;52989;48.796;9.806;2022-08-03T04:31:22;7.85;;;6.70;;
66183;SDS011;52989;48.796;9.806;2022-08-03T04:33:50;8.13;;;5.85;;
66183;SDS011;52989;48.796;9.806;2022-08-03T04:36:19;7.63;;;5.63;;
66183;SDS011;52989;48.796;9.806;2022-08-03T04:39:10;6.50;;;5.20;;
66183;SDS011;52989;48.796;9.806;2022-08-03T04:41:41;6.07;;;4.80;;
66183;SDS011;52989;48.796;9.806;2022-08-03T04:44:09;7.18;;;5.43;;
66183;SDS011;52989;48.796;9.806;2022-08-03T04:46:37;7.70;;;5.68;;
66183;SDS011;52989;48.796;9.806;2022-08-03T04:49:04;8.20;;;6.07;;
66183;SDS011;52989;48.796;9.806;2022-08-03T04:51:30;9.07;;;6.25;;
66183;SDS011;52989;48.796;9.806;2022-08-03T04:53:58;10.98;;;6.40;;
66183;SDS011;52989;48.796;9.806;2022-08-03T04:56:25;6.25;;;5.63;;
66183;SDS011;52989;48.796;9.806;2022-08-03T04:58:50;7.18;;;5.38;;
66183;SDS011;52989;48.796;9.806;2022-08-03T05:01:16;7.63;;;6.13;;
66183;SDS011;52989;48.796;9.806;2022-08-03T05:03:44;8.18;;;5.90;;
66183;SDS011;52989;48.796;9.806;2022-08-03T05:06:10;10.07;;;7.03;;
66183;SDS011;52989;48.796;9.806;2022-08-03T05:08:36;14.85;;;8.60;;
66183;SDS011;52989;48.796;9.806;2022-08-03T05:11:02;12.77;;;8.70;;
66183;SDS011;52989;48.796;9.806;2022-08-03T05:13:27;10.07;;;7.38;;
66183;SDS011;52989;48.796;9.806;2022-08-03T05:15:53;10.63;;;8.05;;
66183;SDS011;52989;48.796;9.806;2022-08-03T05:18:19;10.30;;;7.72;;
66183;SDS011;52989;48.796;9.806;2022-08-03T05:20:44;10.77;;;7.72;;
66183;SDS011;52989;48.796;9.806;2022-08-03T05:23:10;10.98;;;7.65;;
66183;SDS011;52989;48.796;9.806;2022-08-03T05:25:36;11.13;;;7.50;;
66183;SDS011;52989;48.796;9.806;2022-08-03T05:28:01;11.10;;;7.63;;
66183;SDS011;52989;48.796;9.806;2022-08-03T05:30:27;10.32;;;7.05;;
66183;SDS011;52989;48.796;9.806;2022-08-03T05:32:53;9.27;;;6.15;;
66183;SDS011;52989;48.796;9.806;2022-08-03T05:35:18;7.63;;;5.80;;
66183;SDS011;52989;48.796;9.806;2022-08-03T05:37:44;7.28;;;5.85;;
66183;SDS011;52989;48.796;9.806;2022-08-03T05:40:10;7.60;;;5.93;;
66183;SDS011;52989;48.796;9.806;2022-08-03T05:42:36;6.78;;;5.45;;
66183;SDS011;52989;48.796;9.806;2022-08-03T05:45:05;7.30;;;5.53;;
66183;SDS011;52989;48.796;9.806;2022-08-03T05:47:41;8.82;;;5.40;;
66183;SDS011;52989;48.796;9.806;2022-08-03T05:50:08;8.48;;;5.53;;
66183;SDS011;52989;48.796;9.806;2022-08-03T05:52:35;7.47;;;5.22;;
66183;SDS011;52989;48.796;9.806;2022-08-03T05:55:00;6.43;;;5.22;;
66183;SDS011;52989;48.796;9.806;2022-08-03T05:57:26;7.45;;;5.07;;
66183;SDS011;52989;48.796;9.806;2022-08-03T05:59:52;7.55;;;4.80;;
66183;SDS011;52989;48.796;9.806;2022-08-03T06:02:17;7.07;;;5.03;;
66183;SDS011;52989;48.796;9.806;2022-08-03T06:04:43;6.50;;;4.80;;
66183;SDS011;52989;48.796;9.806;2022-08-03T06:07:09;6.40;;;4.47;;
66183;SDS011;52989;48.796;9.806;2022-08-03T06:09:34;7.97;;;4.70;;
66183;SDS011;52989;48.796;9.806;2022-08-03T06:12:00;13.10;;;4.72;;
66183;SDS011;52989;48.796;9.806;2022-08-03T06:14:26;5.95;;;4.60;;
66183;SDS011;52989;48.796;9.806;2022-08-03T06:16:51;6.65;;;4.00;;
66183;SDS011;52989;48.796;9.806;2022-08-03T06:19:17;5.97;;;4.18;;
66183;SDS011;52989;48.796;9.806;2022-08-03T06:21:42;6.20;;;4.07;;
66183;SDS011;52989;48.796;9.806;2022-08-03T06:24:08;4.72;;;3.65;;
66183;SDS011;52989;48.796;9.806;2022-08-03T06:26:33;7.30;;;3.80;;
66183;SDS011;52989;48.796;9.806;2022-08-03T06:28:59;4.80;;;3.92;;
66183;SDS011;52989;48.796;9.806;2022-08-03T06:31:25;7.90;;;4.22;;
66183;SDS011;52989;48.796;9.806;2022-08-03T06:33:53;6.85;;;5.30;;
66183;SDS011;52989;48.796;9.806;2022-08-03T06:36:18;8.38;;;5.10;;
66183;SDS011;52989;48.796;9.806;2022-08-03T06:38:44;7.45;;;5.28;;
66183;SDS011;52989;48.796;9.806;2022-08-03T06:41:11;5.57;;;4.45;;
66183;SDS011;52989;48.796;9.806;2022-08-03T06:43:36;9.15;;;3.95;;
66183;SDS011;52989;48.796;9.806;2022-08-03T06:46:03;6.28;;;3.70;;
66183;SDS011;52989;48.796;9.806;2022-08-03T06:48:31;6.43;;;3.15;;
66183;SDS011;52989;48.796;9.806;2022-08-03T06:50:57;11.68;;;3.13;;
66183;SDS011;52989;48.796;9.806;2022-08-03T06:53:23;4.45;;;3.30;;
66183;SDS011;52989;48.796;9.806;2022-08-03T06:55:49;4.47;;;2.92;;
66183;SDS011;52989;48.796;9.806;2022-08-03T06:58:14;5.13;;;3.47;;
66183;SDS011;52989;48.796;9.806;2022-08-03T07:00:40;3.88;;;3.00;;
66183;SDS011;52989;48.796;9.806;2022-08-03T07:03:05;4.38;;;3.03;;
66183;SDS011;52989;48.796;9.806;2022-08-03T07:05:31;4.57;;;3.22;;
66183;SDS011;52989;48.796;9.806;2022-08-03T07:07:59;4.00;;;2.70;;
66183;SDS011;52989;48.796;9.806;2022-08-03T07:10:25;3.88;;;3.00;;
66183;SDS011;52989;48.796;9.806;2022-08-03T07:12:51;2.65;;;2.35;;
66183;SDS011;52989;48.796;9.806;2022-08-03T07:15:18;8.35;;;2.75;;
66183;SDS011;52989;48.796;9.806;2022-08-03T07:17:43;7.53;;;2.83;;
66183;SDS011;52989;48.796;9.806;2022-08-03T07:20:09;3.50;;;2.75;;
66183;SDS011;52989;48.796;9.806;2022-08-03T07:22:35;5.85;;;2.67;;
66183;SDS011;52989;48.796;9.806;2022-08-03T07:25:01;3.72;;;2.40;;
66183;SDS011;52989;48.796;9.806;2022-08-03T07:27:27;4.95;;;2.40;;
66183;SDS011;52989;48.796;9.806;2022-08-03T07:29:53;3.88;;;2.33;;
66183;SDS011;52989;48.796;9.806;2022-08-03T07:32:19;4.43;;;2.35;;
66183;SDS011;52989;48.796;9.806;2022-08-03T07:34:45;4.65;;;2.60;;
66183;SDS011;52989;48.796;9.806;2022-08-03T07:37:11;2.60;;;2.05;;
66183;SDS011;52989;48.796;9.806;2022-08-03T07:39:36;3.17;;;1.90;;
66183;SDS011;52989;48.796;9.806;2022-08-03T07:42:02;3.13;;;2.40;;
66183;SDS011;52989;48.796;9.806;2022-08-03T07:44:28;4.30;;;2.28;;
66183;SDS011;52989;48.796;9.806;2022-08-03T07:46:53;2.92;;;2.17;;
66183;SDS011;52989;48.796;9.806;2022-08-03T07:49:19;3.75;;;2.50;;
66183;SDS011;52989;48.796;9.806;2022-08-03T07:51:44;4.78;;;2.25;;
66183;SDS011;52989;48.796;9.806;2022-08-03T07:54:30;3.63;;;2.17;;
66183;SDS011;52989;48.796;9.806;2022-08-03T07:56:56;3.33;;;2.00;;
66183;SDS011;52989;48.796;9.806;2022-08-03T07:59:21;5.00;;;2.15;;
66183;SDS011;52989;48.796;9.806;2022-08-03T08:01:47;3.88;;;1.88;;
66183;SDS011;52989;48.796;9.806;2022-08-03T08:04:12;4.50;;;1.75;;
66183;SDS011;52989;48.796;9.806;2022-08-03T08:06:38;3.88;;;1.65;;
66183;SDS011;52989;48.796;9.806;2022-08-03T08:09:03;2.97;;;1.60;;
66183;SDS011;52989;48.796;9.806;2022-08-03T08:11:29;4.57;;;1.77;;
66183;SDS011;52989;48.796;9.806;2022-08-03T08:13:54;3.33;;;1.60;;
66183;SDS011;52989;48.796;9.806;2022-08-03T08:16:20;2.65;;;1.25;;
66183;SDS011;52989;48.796;9.806;2022-08-03T08:18:45;2.10;;;1.70;;
66183;SDS011;52989;48.796;9.806;2022-08-03T08:21:11;2.63;;;1.50;;
66183;SDS011;52989;48.796;9.806;2022-08-03T08:23:37;3.40;;;1.58;;
66183;SDS011;52989;48.796;9.806;2022-08-03T08:26:02;1.50;;;1.40;;
66183;SDS011;52989;48.796;9.806;2022-08-03T08:28:28;4.60;;;1.40;;
66183;SDS011;52989;48.796;9.806;2022-08-03T08:30:53;2.15;;;1.20;;
66183;SDS011;52989;48.796;9.806;2022-08-03T08:33:19;1.95;;;1.60;;
66183;SDS011;52989;48.796;9.806;2022-08-03T08:35:44;1.45;;;1.30;;
66183;SDS011;52989;48.796;9.806;2022-08-03T08:38:10;1.58;;;1.27;;
66183;SDS011;52989;48.796;9.806;2022-08-03T08:40:36;5.15;;;1.40;;
66183;SDS011;52989;48.796;9.806;2022-08-03T08:43:01;4.10;;;1.20;;
66183;SDS011;52989;48.796;9.806;2022-08-03T08:45:27;1.80;;;1.30;;
66183;SDS011;52989;48.796;9.806;2022-08-03T08:47:53;2.40;;;1.30;;
66183;SDS011;52989;48.796;9.806;2022-08-03T08:50:21;1.98;;;1.20;;
66183;SDS011;52989;48.796;9.806;2022-08-03T08:52:47;2.22;;;1.48;;
66183;SDS011;52989;48.796;9.806;2022-08-03T08:55:18;1.88;;;1.08;;
66183;SDS011;52989;48.796;9.806;2022-08-03T08:57:46;1.98;;;1.27;;
66183;SDS011;52989;48.796;9.806;2022-08-03T09:00:20;1.50;;;1.10;;
66183;SDS011;52989;48.796;9.806;2022-08-03T09:02:45;1.38;;;0.90;;
66183;SDS011;52989;48.796;9.806;2022-08-03T09:05:16;2.47;;;1.08;;
66183;SDS011;52989;48.796;9.806;2022-08-03T09:07:43;1.23;;;1.10;;
66183;SDS011;52989;48.796;9.806;2022-08-03T09:10:11;1.67;;;1.10;;
66183;SDS011;52989;48.796;9.806;2022-08-03T09:12:37;1.70;;;1.20;;
66183;SDS011;52989;48.796;9.806;2022-08-03T09:17:56;1.23;;;0.93;;
66183;SDS011;52989;48.796;9.806;2022-08-03T09:20:24;2.15;;;0.90;;
66183;SDS011;52989;48.796;9.806;2022-08-03T09:22:58;1.13;;;0.93;;
66183;SDS011;52989;48.796;9.806;2022-08-03T09:28:03;1.67;;;1.13;;
66183;SDS011;52989;48.796;9.806;2022-08-03T09:30:41;5.15;;;1.20;;
66183;SDS011;52989;48.796;9.806;2022-08-03T09:33:10;3.38;;;1.10;;
66183;SDS011;52989;48.796;9.806;2022-08-03T09:38:20;2.92;;;1.15;;
66183;SDS011;52989;48.796;9.806;2022-08-03T09:40:51;1.33;;;1.10;;
66183;SDS011;52989;48.796;9.806;2022-08-03T09:43:17;2.00;;;1.00;;
66183;SDS011;52989;48.796;9.806;2022-08-03T09:45:44;3.08;;;1.10;;
66183;SDS011;52989;48.796;9.806;2022-08-03T09:48:26;1.83;;;1.00;;
66183;SDS011;52989;48.796;9.806;2022-08-03T09:51:01;1.10;;;1.00;;
66183;SDS011;52989;48.796;9.806;2022-08-03T09:53:28;3.53;;;1.20;;
66183;SDS011;52989;48.796;9.806;2022-08-03T09:55:54;1.20;;;1.00;;
66183;SDS011;52989;48.796;9.806;2022-08-03T09:58:22;1.92;;;1.10;;
66183;SDS011;52989;48.796;9.806;2022-08-03T10:00:53;1.63;;;1.10;;
66183;SDS011;52989;48.796;9.806;2022-08-03T10:03:24;2.83;;;1.17;;
66183;SDS011;52989;48.796;9.806;2022-08-03T10:05:51;1.65;;;1.15;;
66183;SDS011;52989;48.796;9.806;2022-08-03T10:08:17;2.22;;;1.13;;
66183;SDS011;52989;48.796;9.806;2022-08-03T10:10:44;2.55;;;1.13;;
66183;SDS011;52989;48.796;9.806;2022-08-03T10:13:16;2.00;;;0.93;;
66183;SDS011;52989;48.796;9.806;2022-08-03T10:15:42;1.52;;;1.08;;
66183;SDS011;52989;48.796;9.806;2022-08-03T10:18:08;1.55;;;1.10;;
66183;SDS011;52989;48.796;9.806;2022-08-03T10:20:45;2.45;;;1.00;;
66183;SDS011;52989;48.796;9.806;2022-08-03T10:23:17;2.38;;;0.98;;
66183;SDS011;52989;48.796;9.806;2022-08-03T10:25:45;2.65;;;1.20;;
66183;SDS011;52989;48.796;9.806;2022-08-03T10:28:14;1.10;;;0.98;;
66183;SDS011;52989;48.796;9.806;2022-08-03T10:30:42;2.20;;;1.00;;
66183;SDS011;52989;48.796;9.806;2022-08-03T10:33:17;1.48;;;1.13;;
66183;SDS011;52989;48.796;9.806;2022-08-03T10:35:43;1.73;;;1.20;;
66183;SDS011;52989;48.796;9.806;2022-08-03T10:38:11;1.70;;;1.10;;
66183;SDS011;52989;48.796;9.806;2022-08-03T10:40:43;3.25;;;1.02;;
66183;SDS011;52989;48.796;9.806;2022-08-03T10:43:11;1.48;;;1.00;;
66183;SDS011;52989;48.796;9.806;2022-08-03T10:45:42;4.07;;;1.10;;
66183;SDS011;52989;48.796;9.806;2022-08-03T10:48:10;2.42;;;1.40;;
66183;SDS011;52989;48.796;9.806;2022-08-03T10:50:36;1.15;;;0.90;;
66183;SDS011;52989;48.796;9.806;2022-08-03T10:53:05;1.42;;;0.95;;
66183;SDS011;52989;48.796;9.806;2022-08-03T11:01:14;2.20;;;0.95;;
66183;SDS011;52989;48.796;9.806;2022-08-03T11:06:21;3.50;;;1.27;;
66183;SDS011;52989;48.796;9.806;2022-08-03T11:08:50;1.35;;;0.93;;
66183;SDS011;52989;48.796;9.806;2022-08-03T11:11:41;2.30;;;1.10;;
66183;SDS011;52989;48.796;9.806;2022-08-03T11:14:18;2.08;;;1.08;;
66183;SDS011;52989;48.796;9.806;2022-08-03T11:16:48;3.30;;;1.17;;
66183;SDS011;52989;48.796;9.806;2022-08-03T11:19:41;3.00;;;1.10;;
66183;SDS011;52989;48.796;9.806;2022-08-03T11:22:09;4.03;;;1.10;;
66183;SDS011;52989;48.796;9.806;2022-08-03T11:27:18;3.25;;;1.17;;
66183;SDS011;52989;48.796;9.806;2022-08-03T11:29:53;2.65;;;0.90;;
66183;SDS011;52989;48.796;9.806;2022-08-03T11:35:14;1.52;;;0.80;;
66183;SDS011;52989;48.796;9.806;2022-08-03T11:40:37;3.70;;;1.10;;
66183;SDS011;52989;48.796;9.806;2022-08-03T11:45:59;4.60;;;1.00;;
66183;SDS011;52989;48.796;9.806;2022-08-03T11:48:39;1.10;;;0.85;;
66183;SDS011;52989;48.796;9.806;2022-08-03T11:53:54;1.05;;;0.95;;
66183;SDS011;52989;48.796;9.806;2022-08-03T11:56:21;1.88;;;0.88;;
66183;SDS011;52989;48.796;9.806;2022-08-03T11:58:48;1.52;;;1.08;;
66183;SDS011;52989;48.796;9.806;2022-08-03T12:01:17;1.25;;;1.05;;
66183;SDS011;52989;48.796;9.806;2022-08-03T12:03:43;4.93;;;0.90;;
66183;SDS011;52989;48.796;9.806;2022-08-03T12:06:10;1.33;;;1.00;;
66183;SDS011;52989;48.796;9.806;2022-08-03T12:08:38;1.30;;;1.02;;
66183;SDS011;52989;48.796;9.806;2022-08-03T12:11:05;2.95;;;1.10;;
66183;SDS011;52989;48.796;9.806;2022-08-03T12:13:49;3.58;;;1.10;;
66183;SDS011;52989;48.796;9.806;2022-08-03T12:16:22;1.02;;;0.93;;
66183;SDS011;52989;48.796;9.806;2022-08-03T12:18:58;2.03;;;1.00;;
66183;SDS011;52989;48.796;9.806;2022-08-03T12:21:33;1.25;;;0.98;;
66183;SDS011;52989;48.796;9.806;2022-08-03T12:23:59;1.88;;;1.02;;
66183;SDS011;52989;48.796;9.806;2022-08-03T12:26:27;1.55;;;0.90;;
66183;SDS011;52989;48.796;9.806;2022-08-03T12:28:54;1.50;;;1.02;;
66183;SDS011;52989;48.796;9.806;2022-08-03T12:31:19;1.63;;;0.90;;
66183;SDS011;52989;48.796;9.806;2022-08-03T12:34:01;1.13;;;0.95;;
66183;SDS011;52989;48.796;9.806;2022-08-03T12:36:30;1.02;;;0.93;;
66183;SDS011;52989;48.796;9.806;2022-08-03T12:38:58;1.30;;;1.10;;
66183;SDS011;52989;48.796;9.806;2022-08-03T12:41:29;1.45;;;1.27;;
66183;SDS011;52989;48.796;9.806;2022-08-03T12:43:55;1.40;;;1.00;;
66183;SDS011;52989;48.796;9.806;2022-08-03T12:46:21;2.28;;;1.00;;
66183;SDS011;52989;48.796;9.806;2022-08-03T12:48:56;1.60;;;1.00;;
66183;SDS011;52989;48.796;9.806;2022-08-03T12:51:27;1.27;;;1.00;;
66183;SDS011;52989;48.796;9.806;2022-08-03T12:53:54;2.97;;;1.02;;
66183;SDS011;52989;48.796;9.806;2022-08-03T12:56:20;1.10;;;1.00;;
66183;SDS011;52989;48.796;9.806;2022-08-03T12:58:46;1.50;;;1.00;;
66183;SDS011;52989;48.796;9.806;2022-08-03T13:01:12;3.33;;;1.20;;
66183;SDS011;52989;48.796;9.806;2022-08-03T13:03:45;1.20;;;1.00;;
66183;SDS011;52989;48.796;9.806;2022-08-03T13:06:30;2.60;;;1.13;;
66183;SDS011;52989;48.796;9.806;2022-08-03T13:09:03;1.85;;;1.00;;
66183;SDS011;52989;48.796;9.806;2022-08-03T13:11:30;1.20;;;0.98;;
66183;SDS011;52989;48.796;9.806;2022-08-03T13:13:56;2.50;;;0.90;;
66183;SDS011;52989;48.796;9.806;2022-08-03T13:16:21;1.52;;;1.00;;
66183;SDS011;52989;48.796;9.806;2022-08-03T13:18:48;1.35;;;1.08;;
66183;SDS011;52989;48.796;9.806;2022-08-03T13:21:17;2.40;;;0.82;;
66183;SDS011;52989;48.796;9.806;2022-08-03T13:23:44;3.63;;;1.02;;
66183;SDS011;52989;48.796;9.806;2022-08-03T13:26:10;0.95;;;0.85;;
66183;SDS011;52989;48.796;9.806;2022-08-03T13:28:36;1.55;;;1.00;;
66183;SDS011;52989;48.796;9.806;2022-08-03T13:31:03;3.83;;;1.23;;
66183;SDS011;52989;48.796;9.806;2022-08-03T13:33:29;0.88;;;0.80;;
66183;SDS011;52989;48.796;9.806;2022-08-03T13:35:54;1.73;;;1.10;;
66183;SDS011;52989;48.796;9.806;2022-08-03T13:38:20;2.38;;;1.13;;
66183;SDS011;52989;48.796;9.806;2022-08-03T13:40:45;1.63;;;1.10;;
66183;SDS011;52989;48.796;9.806;2022-08-03T13:43:11;1.40;;;0.80;;
66183;SDS011;52989;48.796;9.806;2022-08-03T13:45:37;1.08;;;0.98;;
66183;SDS011;52989;48.796;9.806;2022-08-03T13:48:03;2.55;;;1.20;;
66183;SDS011;52989;48.796;9.806;2022-08-03T13:50:28;1.67;;;0.82;;
66183;SDS011;52989;48.796;9.806;2022-08-03T13:52:55;2.60;;;0.93;;
66183;SDS011;52989;48.796;9.806;2022-08-03T13:55:21;1.65;;;1.00;;
66183;SDS011;52989;48.796;9.806;2022-08-03T13:57:47;1.10;;;0.90;;
66183;SDS011;52989;48.796;9.806;2022-08-03T14:00:13;3.70;;;1.10;;
66183;SDS011;52989;48.796;9.806;2022-08-03T14:02:39;1.77;;;0.98;;
66183;SDS011;52989;48.796;9.806;2022-08-03T14:05:05;2.72;;;1.15;;
66183;SDS011;52989;48.796;9.806;2022-08-03T14:07:32;1.60;;;0.98;;
66183;SDS011;52989;48.796;9.806;2022-08-03T14:09:57;1.10;;;1.00;;
66183;SDS011;52989;48.796;9.806;2022-08-03T14:12:25;3.88;;;1.00;;
66183;SDS011;52989;48.796;9.806;2022-08-03T14:14:51;1.73;;;0.93;;
66183;SDS011;52989;48.796;9.806;2022-08-03T14:17:16;3.88;;;1.00;;
66183;SDS011;52989;48.796;9.806;2022-08-03T14:19:42;1.02;;;0.93;;
66183;SDS011;52989;48.796;9.806;2022-08-03T14:22:07;2.20;;;1.00;;
66183;SDS011;52989;48.796;9.806;2022-08-03T14:24:33;2.08;;;0.90;;
66183;SDS011;52989;48.796;9.806;2022-08-03T14:26:58;1.13;;;1.02;;
66183;SDS011;52989;48.796;9.806;2022-08-03T14:29:24;1.75;;;0.90;;
66183;SDS011;52989;48.796;9.806;2022-08-03T14:31:50;1.42;;;1.10;;
66183;SDS011;52989;48.796;9.806;2022-08-03T14:34:15;1.80;;;1.00;;
66183;SDS011;52989;48.796;9.806;2022-08-03T14:36:41;1.80;;;1.10;;
66183;SDS011;52989;48.796;9.806;2022-08-03T14:39:06;1.30;;;1.00;;
66183;SDS011;52989;48.796;9.806;2022-08-03T14:41:32;3.53;;;1.35;;
66183;SDS011;52989;48.796;9.806;2022-08-03T14:43:57;2.05;;;0.98;;
66183;SDS011;52989;48.796;9.806;2022-08-03T14:46:23;3.85;;;1.02;;
66183;SDS011;52989;48.796;9.806;2022-08-03T14:48:49;1.02;;;0.80;;
66183;SDS011;52989;48.796;9.806;2022-08-03T14:51:14;1.40;;;1.10;;
66183;SDS011;52989;48.796;9.806;2022-08-03T14:53:40;1.63;;;0.77;;
66183;SDS011;52989;48.796;9.806;2022-08-03T14:56:05;2.08;;;0.90;;
66183;SDS011;52989;48.796;9.806;2022-08-03T14:58:31;2.45;;;1.05;;
66183;SDS011;52989;48.796;9.806;2022-08-03T15:00:57;2.45;;;0.98;;
66183;SDS011;52989;48.796;9.806;2022-08-03T15:03:22;2.88;;;1.13;;
66183;SDS011;52989;48.796;9.806;2022-08-03T15:05:52;1.75;;;1.08;;
66183;SDS011;52989;48.796;9.806;2022-08-03T15:08:19;2.95;;;0.98;;
66183;SDS011;52989;48.796;9.806;2022-08-03T15:10:46;2.25;;;1.08;;
66183;SDS011;52989;48.796;9.806;2022-08-03T15:13:13;2.10;;;1.00;;
66183;SDS011;52989;48.796;9.806;2022-08-03T15:15:39;3.92;;;0.90;;
66183;SDS011;52989;48.796;9.806;2022-08-03T15:18:05;2.13;;;1.10;;
66183;SDS011;52989;48.796;9.806;2022-08-03T15:20:31;1.33;;;1.00;;
66183;SDS011;52989;48.796;9.806;2022-08-03T15:22:56;1.05;;;0.90;;
66183;SDS011;52989;48.796;9.806;2022-08-03T15:25:22;1.67;;;0.85;;
66183;SDS011;52989;48.796;9.806;2022-08-03T15:27:48;2.25;;;0.90;;
66183;SDS011;52989;48.796;9.806;2022-08-03T15:30:13;1.25;;;0.90;;
66183;SDS011;52989;48.796;9.806;2022-08-03T15:32:39;1.10;;;0.90;;
66183;SDS011;52989;48.796;9.806;2022-08-03T15:35:04;2.70;;;0.85;;
66183;SDS011;52989;48.796;9.806;2022-08-03T15:37:30;4.20;;;0.90;;
66183;SDS011;52989;48.796;9.806;2022-08-03T15:39:56;1.08;;;0.90;;
66183;SDS011;52989;48.796;9.806;2022-08-03T15:42:22;1.73;;;0.88;;